createdAt,value
2022-11-27T00:01:12.431Z,3.67
2022-11-27T00:03:40.377Z,3.65
2022-11-27T00:06:08.729Z,3.66
2022-11-27T00:08:35.294Z,3.64
2022-11-27T00:11:10.537Z,3.64
2022-11-27T00:13:37.327Z,3.65
2022-11-27T00:16:04.613Z,3.63
2022-11-27T00:18:31.179Z,3.63
2022-11-27T00:21:06.549Z,3.62
2022-11-27T00:23:34.617Z,3.60
2022-11-27T00:26:01.846Z,3.61
2022-11-27T00:28:28.800Z,3.61
2022-11-27T00:30:59.691Z,3.62
2022-11-27T00:33:26.793Z,3.60
2022-11-27T00:35:53.342Z,3.59
2022-11-27T00:38:20.577Z,3.59
2022-11-27T00:40:47.498Z,3.57
2022-11-27T00:43:14.184Z,3.55
2022-11-27T00:45:40.660Z,3.52
2022-11-27T00:48:07.172Z,3.49
2022-11-27T00:50:33.680Z,3.48
2022-11-27T00:53:01.430Z,3.47
2022-11-27T00:55:27.938Z,3.42
2022-11-27T00:57:55.097Z,3.42
2022-11-27T01:00:22.705Z,3.40
2022-11-27T01:02:49.360Z,3.39
2022-11-27T01:05:15.990Z,3.37
2022-11-27T01:07:42.574Z,3.36
2022-11-27T01:10:09.519Z,3.34
2022-11-27T01:12:36.070Z,3.33
2022-11-27T01:15:02.621Z,3.30
2022-11-27T01:17:29.601Z,3.28
2022-11-27T01:19:56.161Z,3.24
2022-11-27T01:22:22.794Z,3.17
2022-11-27T01:24:49.375Z,3.17
2022-11-27T01:27:15.857Z,3.14
2022-11-27T01:29:42.385Z,3.10
2022-11-27T01:32:10.499Z,3.09
2022-11-27T01:34:37.099Z,3.08
2022-11-27T01:37:03.636Z,3.07
2022-11-27T01:39:30.145Z,3.04
2022-11-27T01:41:56.621Z,3.06
2022-11-27T01:44:26.129Z,3.06
2022-11-27T01:47:11.899Z,3.06
2022-11-27T01:49:44.458Z,3.03
2022-11-27T01:52:24.017Z,3.04
2022-11-27T01:55:18.942Z,3.03
2022-11-27T01:57:53.527Z,3.02
2022-11-27T02:00:21.004Z,3.02
2022-11-27T02:02:47.866Z,3.01
2022-11-27T02:05:18.157Z,3.01
2022-11-27T02:07:45.842Z,3.01
2022-11-27T02:10:13.642Z,2.98
2022-11-27T02:13:01.358Z,2.94
2022-11-27T02:15:31.501Z,2.94
2022-11-27T02:18:10.320Z,2.95
2022-11-27T02:20:39.841Z,2.95
2022-11-27T02:23:30.925Z,2.94
2022-11-27T02:26:03.359Z,2.94
2022-11-27T02:28:43.071Z,2.94
2022-11-27T02:31:18.489Z,2.98
2022-11-27T02:33:50.417Z,2.96
2022-11-27T02:36:27.805Z,2.91
2022-11-27T02:39:03.175Z,2.89
2022-11-27T02:41:38.533Z,2.89
2022-11-27T02:44:08.701Z,2.88
2022-11-27T02:46:35.649Z,2.85
2022-11-27T02:49:10.352Z,2.82
2022-11-27T02:51:39.141Z,2.80
2022-11-27T02:54:10.104Z,2.76
2022-11-27T02:56:37.891Z,2.77
2022-11-27T02:59:08.445Z,2.76
2022-11-27T03:01:40.248Z,2.76
2022-11-27T03:04:11.791Z,2.73
2022-11-27T03:06:47.562Z,2.71
2022-11-27T03:09:18.845Z,2.72
2022-11-27T03:11:46.098Z,2.74
2022-11-27T03:14:15.033Z,2.84
2022-11-27T03:17:06.157Z,2.81
2022-11-27T03:19:45.965Z,2.78
2022-11-27T03:22:12.891Z,2.74
2022-11-27T03:24:39.818Z,2.75
2022-11-27T03:27:06.938Z,2.68
2022-11-27T03:29:41.265Z,2.61
2022-11-27T03:32:08.098Z,2.60
2022-11-27T03:34:35.586Z,2.63
2022-11-27T03:37:02.692Z,2.60
2022-11-27T03:39:30.503Z,2.58
2022-11-27T03:42:09.750Z,2.55
2022-11-27T03:45:21.116Z,2.52
2022-11-27T03:48:09.134Z,2.51
2022-11-27T03:50:38.536Z,2.50
2022-11-27T03:53:23.365Z,2.50
2022-11-27T03:56:10.175Z,2.53
2022-11-27T03:58:44.465Z,2.47
2022-11-27T04:01:15.103Z,2.49
2022-11-27T04:03:41.779Z,2.47
2022-11-27T04:06:08.356Z,2.37
2022-11-27T04:08:34.932Z,2.31
2022-11-27T04:11:01.535Z,2.27
2022-11-27T04:13:28.064Z,2.23
2022-11-27T04:15:54.613Z,2.22
2022-11-27T04:18:21.130Z,2.18
2022-11-27T04:20:47.886Z,2.17
2022-11-27T04:23:14.456Z,2.18
2022-11-27T04:25:41.005Z,2.18
2022-11-27T04:28:07.519Z,2.16
2022-11-27T04:30:34.057Z,2.22
2022-11-27T04:33:00.596Z,2.22
2022-11-27T04:35:27.114Z,2.28
2022-11-27T04:37:53.700Z,2.23
2022-11-27T04:40:20.306Z,2.22
2022-11-27T04:42:46.854Z,2.20
2022-11-27T04:45:14.324Z,2.24
2022-11-27T04:47:40.997Z,2.21
2022-11-27T04:50:08.398Z,2.15
2022-11-27T04:52:34.993Z,2.11
2022-11-27T04:55:01.661Z,2.05
2022-11-27T04:57:28.326Z,2.09
2022-11-27T04:59:54.904Z,2.13
2022-11-27T05:02:21.843Z,2.12
2022-11-27T05:04:48.413Z,2.02
2022-11-27T05:07:14.969Z,1.99
2022-11-27T05:09:41.501Z,2.00
2022-11-27T05:12:08.033Z,1.95
2022-11-27T05:14:34.708Z,1.94
2022-11-27T05:17:01.964Z,1.99
2022-11-27T05:19:30.469Z,2.03
2022-11-27T05:21:57.516Z,1.98
2022-11-27T05:24:26.641Z,1.98
2022-11-27T05:26:53.167Z,1.95
2022-11-27T05:29:20.709Z,1.94
2022-11-27T05:31:47.981Z,1.89
2022-11-27T05:34:14.996Z,1.85
2022-11-27T05:36:42.802Z,1.83
2022-11-27T05:39:10.613Z,1.81
2022-11-27T05:41:39.025Z,1.82
2022-11-27T05:44:05.820Z,1.87
2022-11-27T05:46:33.164Z,1.90
2022-11-27T05:48:59.868Z,1.95
2022-11-27T05:51:26.423Z,1.93
2022-11-27T05:53:52.941Z,1.91
2022-11-27T05:56:19.694Z,1.92
2022-11-27T05:58:47.892Z,1.95
2022-11-27T06:01:16.780Z,1.99
2022-11-27T06:03:43.375Z,2.06
2022-11-27T06:06:13.344Z,2.09
2022-11-27T06:08:41.316Z,2.14
2022-11-27T06:11:09.633Z,2.22
2022-11-27T06:13:36.692Z,2.23
2022-11-27T06:16:14.685Z,2.26
2022-11-27T06:18:41.284Z,2.28
2022-11-27T06:21:13.153Z,2.32
2022-11-27T06:23:41.091Z,2.35
2022-11-27T06:26:19.128Z,2.37
2022-11-27T06:28:46.791Z,2.39
2022-11-27T06:31:18.109Z,2.44
2022-11-27T06:33:45.887Z,2.46
2022-11-27T06:36:12.457Z,2.48
2022-11-27T06:38:39.374Z,2.51
2022-11-27T06:41:09.148Z,2.53
2022-11-27T06:43:36.227Z,2.55
2022-11-27T06:46:04.355Z,2.57
2022-11-27T06:48:31.891Z,2.58
2022-11-27T06:51:06.760Z,2.61
2022-11-27T06:53:35.852Z,2.61
2022-11-27T06:56:03.862Z,2.63
2022-11-27T06:58:31.351Z,2.67
2022-11-27T07:01:04.189Z,2.68
2022-11-27T07:03:30.750Z,2.70
2022-11-27T07:06:02.041Z,2.73
2022-11-27T07:08:29.051Z,2.77
2022-11-27T07:11:02.164Z,2.79
2022-11-27T07:13:30.107Z,2.86
2022-11-27T07:16:00.925Z,2.91
2022-11-27T07:18:28.252Z,2.98
2022-11-27T07:20:56.833Z,3.00
2022-11-27T07:23:23.436Z,3.04
2022-11-27T07:25:50.003Z,3.08
2022-11-27T07:28:19.039Z,3.12
2022-11-27T07:30:46.283Z,3.18
2022-11-27T07:33:12.825Z,3.23
2022-11-27T07:35:39.468Z,3.26
2022-11-27T07:38:05.940Z,3.30
2022-11-27T07:40:32.428Z,3.34
2022-11-27T07:42:59.034Z,3.37
2022-11-27T07:45:25.578Z,3.42
2022-11-27T07:47:52.120Z,3.43
2022-11-27T07:50:18.657Z,3.45
2022-11-27T07:52:45.140Z,3.51
2022-11-27T07:55:11.732Z,3.54
2022-11-27T07:57:38.523Z,3.61
2022-11-27T08:00:06.146Z,3.67
2022-11-27T08:02:32.669Z,3.73
2022-11-27T08:04:59.218Z,3.76
2022-11-27T08:07:29.849Z,3.81
2022-11-27T08:09:59.694Z,3.85
2022-11-27T08:12:26.542Z,3.92
2022-11-27T08:14:53.148Z,3.97
2022-11-27T08:17:19.721Z,4.01
2022-11-27T08:19:46.217Z,4.08
2022-11-27T08:22:14.174Z,4.13
2022-11-27T08:24:42.447Z,4.21
2022-11-27T08:27:10.155Z,4.28
2022-11-27T08:29:37.572Z,4.35
2022-11-27T08:32:05.103Z,4.42
2022-11-27T08:34:32.537Z,4.47
2022-11-27T08:36:59.063Z,4.52
2022-11-27T08:39:27.380Z,4.54
2022-11-27T08:41:54.330Z,4.55
2022-11-27T08:44:21.070Z,4.61
2022-11-27T08:46:47.717Z,4.67
2022-11-27T08:49:14.550Z,4.70
2022-11-27T08:51:41.158Z,4.75
2022-11-27T08:54:07.695Z,4.76
2022-11-27T08:56:34.431Z,4.76
2022-11-27T08:59:00.969Z,4.79
2022-11-27T09:01:30.301Z,4.82
2022-11-27T09:03:57.800Z,4.87
2022-11-27T09:06:28.241Z,4.88
2022-11-27T09:08:59.470Z,4.92
2022-11-27T09:11:27.889Z,4.98
2022-11-27T09:13:54.513Z,4.99
2022-11-27T09:16:22.462Z,5.02
2022-11-27T09:18:50.872Z,5.04
2022-11-27T09:21:19.280Z,5.04
2022-11-27T09:23:46.250Z,5.05
2022-11-27T09:26:15.881Z,5.09
2022-11-27T09:28:43.389Z,5.13
2022-11-27T09:31:11.537Z,5.14
2022-11-27T09:33:39.985Z,5.15
2022-11-27T09:36:15.003Z,5.16
2022-11-27T09:38:42.511Z,5.17
2022-11-27T09:41:11.825Z,5.19
2022-11-27T09:43:53.891Z,5.23
2022-11-27T09:46:29.193Z,5.24
2022-11-27T09:48:59.024Z,5.26
2022-11-27T09:51:34.178Z,5.29
2022-11-27T09:54:08.690Z,5.30
2022-11-27T09:56:36.682Z,5.31
2022-11-27T09:59:09.626Z,5.29
2022-11-27T10:01:45.195Z,5.32
2022-11-27T10:04:19.842Z,5.33
2022-11-27T10:07:05.209Z,5.35
2022-11-27T10:09:50.441Z,5.34
2022-11-27T10:12:33.777Z,5.37
2022-11-27T10:15:27.172Z,5.39
2022-11-27T10:18:32.353Z,5.43
2022-11-27T10:21:08.251Z,5.44
2022-11-27T10:23:52.215Z,5.46
2022-11-27T10:26:24.953Z,5.47
2022-11-27T10:28:55.661Z,5.48
2022-11-27T10:31:39.957Z,5.54
2022-11-27T10:34:34.225Z,5.50
2022-11-27T10:37:06.432Z,5.48
2022-11-27T10:39:44.533Z,5.47
2022-11-27T10:42:18.827Z,5.45
2022-11-27T10:44:50.851Z,5.43
2022-11-27T10:47:20.739Z,5.43
2022-11-27T10:49:48.578Z,5.44
2022-11-27T10:52:18.050Z,5.44
2022-11-27T10:54:50.814Z,5.48
2022-11-27T10:57:54.825Z,5.51
2022-11-27T11:00:23.330Z,5.54
2022-11-27T11:02:59.708Z,5.55
2022-11-27T11:08:25.344Z,5.54
2022-11-27T11:10:56.562Z,5.55
2022-11-27T11:13:46.945Z,5.57
2022-11-27T11:16:33.370Z,5.58
2022-11-27T11:19:02.631Z,5.57
2022-11-27T11:21:33.703Z,5.57
2022-11-27T11:24:07.024Z,5.56
2022-11-27T11:26:36.044Z,5.57
2022-11-27T11:29:06.709Z,5.60
2022-11-27T11:31:38.622Z,5.61
2022-11-27T11:34:16.387Z,5.62
2022-11-27T11:37:00.750Z,5.64
2022-11-27T11:39:31.933Z,5.69
2022-11-27T11:41:58.873Z,5.67
2022-11-27T11:44:32.989Z,5.68
2022-11-27T11:46:59.494Z,5.69
2022-11-27T11:49:27.537Z,5.69
2022-11-27T11:52:22.109Z,5.73
2022-11-27T11:55:03.781Z,5.75
2022-11-27T11:57:48.746Z,5.75
2022-11-27T12:00:18.321Z,5.73
2022-11-27T12:03:03.349Z,5.74
2022-11-27T12:05:48.600Z,5.72
2022-11-27T12:08:28.329Z,5.73
2022-11-27T12:11:14.050Z,5.77
2022-11-27T12:13:49.398Z,5.79
2022-11-27T12:16:41.435Z,5.77
2022-11-27T12:19:34.933Z,5.79
2022-11-27T12:22:17.645Z,5.79
2022-11-27T12:25:16.249Z,5.79
2022-11-27T12:28:15.323Z,5.76
2022-11-27T12:30:54.201Z,5.77
2022-11-27T12:33:26.897Z,5.76
2022-11-27T12:36:22.689Z,5.76
2022-11-27T12:39:23.842Z,5.77
2022-11-27T12:42:01.524Z,5.82
2022-11-27T12:44:50.178Z,5.84
2022-11-27T12:47:25.518Z,5.89
2022-11-27T12:49:57.465Z,5.90
2022-11-27T12:52:28.279Z,5.88
2022-11-27T12:55:02.662Z,5.91
2022-11-27T12:57:47.654Z,5.91
2022-11-27T13:00:19.194Z,5.90
2022-11-27T13:02:59.720Z,5.88
2022-11-27T13:05:38.308Z,5.89
2022-11-27T13:08:17.689Z,5.88
2022-11-27T13:10:54.061Z,5.85
2022-11-27T13:13:30.366Z,5.83
2022-11-27T13:16:13.255Z,5.79
2022-11-27T13:18:43.834Z,5.81
2022-11-27T13:21:18.564Z,5.75
2022-11-27T13:23:44.992Z,5.75
2022-11-27T13:26:37.177Z,5.73
2022-11-27T13:29:29.022Z,5.72
2022-11-27T13:32:00.456Z,5.73
2022-11-27T13:34:29.825Z,5.73
2022-11-27T13:37:06.169Z,5.72
2022-11-27T13:39:41.916Z,5.73
2022-11-27T13:42:11.524Z,5.71
2022-11-27T13:44:43.501Z,5.70
2022-11-27T13:47:17.556Z,5.69
2022-11-27T13:49:45.396Z,5.67
2022-11-27T13:52:15.930Z,5.66
2022-11-27T13:55:00.854Z,5.64
2022-11-27T13:57:30.035Z,5.61
2022-11-27T14:00:11.908Z,5.58
2022-11-27T14:02:43.803Z,5.56
2022-11-27T14:05:12.470Z,5.58
2022-11-27T14:07:45.594Z,5.58
2022-11-27T14:10:17.406Z,5.56
2022-11-27T14:13:11.268Z,5.54
2022-11-27T14:15:38.766Z,5.53
2022-11-27T14:18:14.153Z,5.53
2022-11-27T14:20:50.827Z,5.56
2022-11-27T14:23:51.246Z,5.48
2022-11-27T14:26:24.269Z,5.40
2022-11-27T14:28:58.402Z,5.37
2022-11-27T14:31:29.561Z,5.38
2022-11-27T14:34:26.389Z,5.41
2022-11-27T14:36:42.994Z,5.38
2022-11-27T14:39:21.105Z,5.36
2022-11-27T14:41:56.530Z,5.36
2022-11-27T14:44:23.139Z,5.31
2022-11-27T14:46:51.231Z,5.28
2022-11-27T14:49:23.692Z,5.28
2022-11-27T14:51:51.387Z,5.27
2022-11-27T14:54:25.621Z,5.24
2022-11-27T14:56:53.235Z,5.24
2022-11-27T14:59:22.463Z,5.24
2022-11-27T15:02:21.408Z,5.23
2022-11-27T15:05:02.622Z,5.21
2022-11-27T15:07:31.285Z,5.21
2022-11-27T15:09:59.713Z,5.18
2022-11-27T15:12:35.668Z,5.17
2022-11-27T15:15:08.883Z,5.16
2022-11-27T15:17:38.627Z,5.15
2022-11-27T15:20:15.634Z,5.12
2022-11-27T15:22:54.070Z,5.17
2022-11-27T15:25:33.963Z,5.16
2022-11-27T15:28:00.819Z,5.16
2022-11-27T15:30:27.401Z,5.18
2022-11-27T15:32:55.460Z,5.19
2022-11-27T15:35:32.512Z,5.18
2022-11-27T15:38:04.563Z,5.17
2022-11-27T15:40:37.142Z,5.13
2022-11-27T15:43:12.205Z,5.16
2022-11-27T15:45:39.506Z,5.15
2022-11-27T15:48:12.846Z,5.11
2022-11-27T15:50:39.472Z,5.11
2022-11-27T15:53:06.005Z,5.08
2022-11-27T15:55:33.413Z,5.12
2022-11-27T15:58:00.424Z,5.08
2022-11-27T16:00:27.007Z,5.05
2022-11-27T16:02:57.003Z,5.09
2022-11-27T16:05:23.567Z,5.12
2022-11-27T16:07:53.723Z,5.11
2022-11-27T16:10:21.449Z,5.10
2022-11-27T16:12:48.041Z,5.09
2022-11-27T16:15:14.605Z,5.11
2022-11-27T16:17:41.155Z,5.09
2022-11-27T16:20:08.512Z,5.06
2022-11-27T16:22:34.995Z,5.04
2022-11-27T16:25:01.555Z,5.04
2022-11-27T16:27:28.102Z,5.05
2022-11-27T16:29:54.615Z,5.02
2022-11-27T16:32:21.136Z,5.03
2022-11-27T16:34:50.497Z,5.02
2022-11-27T16:37:18.538Z,5.03
2022-11-27T16:39:45.377Z,5.04
2022-11-27T16:42:11.888Z,5.03
2022-11-27T16:44:38.423Z,5.04
2022-11-27T16:47:05.226Z,5.03
2022-11-27T16:49:31.792Z,5.02
2022-11-27T16:51:59.358Z,5.02
2022-11-27T16:54:25.872Z,5.03
2022-11-27T16:56:52.378Z,4.99
2022-11-27T16:59:19.019Z,4.97
2022-11-27T17:01:45.957Z,4.99
2022-11-27T17:04:18.266Z,4.99
2022-11-27T17:06:45.909Z,5.00
2022-11-27T17:09:13.039Z,5.01
2022-11-27T17:11:43.409Z,5.00
2022-11-27T17:14:10.945Z,5.01
2022-11-27T17:16:42.712Z,5.01
2022-11-27T17:19:13.181Z,5.01
2022-11-27T17:21:40.637Z,4.99
2022-11-27T17:24:15.017Z,5.01
2022-11-27T17:26:43.489Z,5.00
2022-11-27T17:29:11.826Z,5.01
2022-11-27T17:31:39.202Z,4.97
2022-11-27T17:34:06.883Z,4.97
2022-11-27T17:36:37.147Z,4.98
2022-11-27T17:39:05.956Z,4.96
2022-11-27T17:41:32.941Z,4.95
2022-11-27T17:43:59.674Z,4.95
2022-11-27T17:46:28.920Z,4.94
2022-11-27T17:48:58.003Z,4.93
2022-11-27T17:51:25.523Z,4.93
2022-11-27T17:53:52.157Z,4.93
2022-11-27T17:56:20.517Z,4.94
2022-11-27T17:58:47.620Z,4.93
2022-11-27T18:01:19.767Z,4.94
2022-11-27T18:03:46.941Z,4.93
2022-11-27T18:06:14.979Z,4.93
2022-11-27T18:08:41.866Z,4.92
2022-11-27T18:11:12.052Z,4.91
2022-11-27T18:13:38.729Z,4.92
2022-11-27T18:16:06.299Z,4.92
2022-11-27T18:18:32.920Z,4.91
2022-11-27T18:21:08.465Z,4.91
2022-11-27T18:23:36.190Z,4.91
2022-11-27T18:26:07.753Z,4.92
2022-11-27T18:28:34.339Z,4.89
2022-11-27T18:31:22.865Z,4.90
2022-11-27T18:33:49.516Z,4.90
2022-11-27T18:36:17.729Z,4.89
2022-11-27T18:38:45.317Z,4.89
2022-11-27T18:41:17.585Z,4.89
2022-11-27T18:43:45.218Z,4.89
2022-11-27T18:46:14.922Z,4.89
2022-11-27T18:48:47.073Z,4.89
2022-11-27T18:51:19.225Z,4.90
2022-11-27T18:53:45.944Z,4.90
2022-11-27T18:56:24.649Z,4.89
2022-11-27T18:58:51.249Z,4.88
2022-11-27T19:01:23.734Z,4.86
2022-11-27T19:03:50.838Z,4.83
2022-11-27T19:06:19.275Z,4.81
2022-11-27T19:08:46.777Z,4.81
2022-11-27T19:11:15.641Z,4.81
2022-11-27T19:13:43.097Z,4.75
2022-11-27T19:16:18.980Z,4.78
2022-11-27T19:18:45.952Z,4.79
2022-11-27T19:21:23.985Z,4.79
2022-11-27T19:23:51.734Z,4.80
2022-11-27T19:26:21.704Z,4.78
2022-11-27T19:28:49.552Z,4.74
2022-11-27T19:31:16.589Z,4.75
2022-11-27T19:33:44.348Z,4.74
2022-11-27T19:36:13.329Z,4.73
2022-11-27T19:38:41.894Z,4.72
2022-11-27T19:41:14.274Z,4.69
2022-11-27T19:43:41.209Z,4.67
2022-11-27T19:46:18.234Z,4.67
2022-11-27T19:48:45.542Z,4.68
2022-11-27T19:51:13.092Z,4.68
2022-11-27T19:53:40.473Z,4.68
2022-11-27T19:56:07.992Z,4.67
2022-11-27T19:58:34.962Z,4.66
2022-11-27T20:01:16.597Z,4.65
2022-11-27T20:03:43.890Z,4.64
2022-11-27T20:06:13.146Z,4.62
2022-11-27T20:08:41.358Z,4.62
2022-11-27T20:11:11.352Z,4.60
2022-11-27T20:13:38.373Z,4.59
2022-11-27T20:16:14.009Z,4.57
2022-11-27T20:18:41.151Z,4.57
2022-11-27T20:21:14.719Z,4.58
2022-11-27T20:23:42.270Z,4.57
2022-11-27T20:26:11.804Z,4.57
2022-11-27T20:28:41.267Z,4.57
2022-11-27T20:31:14.200Z,4.57
2022-11-27T20:33:40.973Z,4.55
2022-11-27T20:36:16.792Z,4.53
2022-11-27T20:38:43.551Z,4.54
2022-11-27T20:41:13.250Z,4.52
2022-11-27T20:43:40.477Z,4.53
2022-11-27T20:46:10.199Z,4.51
2022-11-27T20:48:36.849Z,4.51
2022-11-27T20:51:08.574Z,4.51
2022-11-27T20:53:35.409Z,4.50
2022-11-27T20:56:07.124Z,4.51
2022-11-27T20:58:38.512Z,4.49
2022-11-27T21:01:22.711Z,4.49
2022-11-27T21:03:51.265Z,4.50
2022-11-27T21:06:19.401Z,4.49
2022-11-27T21:08:46.733Z,4.49
2022-11-27T21:11:24.932Z,4.47
2022-11-27T21:13:56.605Z,4.48
2022-11-27T21:16:26.026Z,4.50
2022-11-27T21:18:54.141Z,4.48
2022-11-27T21:21:20.717Z,4.47
2022-11-27T21:23:47.309Z,4.46
2022-11-27T21:26:16.231Z,4.48
2022-11-27T21:28:43.245Z,4.48
2022-11-27T21:31:17.122Z,4.45
2022-11-27T21:33:48.538Z,4.46
2022-11-27T21:36:15.920Z,4.44
2022-11-27T21:38:42.734Z,4.45
2022-11-27T21:41:12.767Z,4.42
2022-11-27T21:43:40.901Z,4.40
2022-11-27T21:46:17.245Z,4.41
2022-11-27T21:48:44.579Z,4.42
2022-11-27T21:51:12.760Z,4.40
2022-11-27T21:53:40.630Z,4.39
2022-11-27T21:56:08.421Z,4.38
2022-11-27T21:58:35.873Z,4.37
2022-11-27T22:01:04.066Z,4.37
2022-11-27T22:03:30.589Z,4.37
2022-11-27T22:06:16.968Z,4.38
2022-11-27T22:08:45.643Z,4.40
2022-11-27T22:11:14.363Z,4.40
2022-11-27T22:13:41.606Z,4.42
2022-11-27T22:16:10.390Z,4.42
2022-11-27T22:18:37.186Z,4.42
2022-11-27T22:21:08.585Z,4.41
2022-11-27T22:23:35.780Z,4.38
2022-11-27T22:26:08.350Z,4.39
2022-11-27T22:28:36.031Z,4.39
2022-11-27T22:31:23.148Z,4.40
2022-11-27T22:33:50.473Z,4.43
2022-11-27T22:36:30.349Z,4.40
2022-11-27T22:38:57.973Z,4.39
2022-11-27T22:41:26.696Z,4.40
2022-11-27T22:43:53.730Z,4.39
2022-11-27T22:46:34.291Z,4.38
2022-11-27T22:49:03.659Z,4.39
2022-11-27T22:51:32.059Z,4.39
2022-11-27T22:53:58.945Z,4.36
2022-11-27T22:56:25.978Z,4.35
2022-11-27T22:59:06.059Z,4.36
2022-11-27T23:01:38.538Z,4.37
2022-11-27T23:04:05.232Z,4.38
2022-11-27T23:06:31.934Z,4.40
2022-11-27T23:08:58.597Z,4.43
2022-11-27T23:11:27.367Z,4.41
2022-11-27T23:13:55.881Z,4.42
2022-11-27T23:16:23.204Z,4.41
2022-11-27T23:18:50.840Z,4.40
2022-11-27T23:21:21.834Z,4.45
2022-11-27T23:23:48.745Z,4.41
2022-11-27T23:26:18.696Z,4.39
2022-11-27T23:28:46.388Z,4.38
2022-11-27T23:31:29.349Z,4.37
2022-11-27T23:33:57.373Z,4.36
2022-11-27T23:36:23.959Z,4.37
2022-11-27T23:38:50.513Z,4.33
2022-11-27T23:41:22.827Z,4.33
2022-11-27T23:43:50.322Z,4.34
2022-11-27T23:46:18.748Z,4.36
2022-11-27T23:48:46.007Z,4.35
2022-11-27T23:51:16.266Z,4.36
2022-11-27T23:53:43.342Z,4.36
2022-11-27T23:56:12.932Z,4.34
2022-11-27T23:58:43.690Z,4.36
